Time;durP1;ratioP1;P1;durP2;ratioP2;P2;SDS_P1;SDS_P2;PMS_P1;PMS_P2;Temp;Humidity;BMP_temperature;BMP_pressure;BME280_temperature;BME280_humidity;BME280_pressure;Samples;Min_cycle;Max_cycle;Signal;HPM_P1;HPM_P2
2021/12/12 00:00:20;;;;;;;;;1.00;1.00;;;;;7.80;72.30;101902.16;5008966;28;46390;-86
2021/12/12 00:02:56;;;;;;;;;0.75;0.00;;;;;7.81;71.86;101907.41;5008514;28;45542;-85
2021/12/12 00:05:28;;;;;;;;;0.00;0.00;;;;;7.90;72.67;101918.97;5001019;28;45482;-85
2021/12/12 00:07:53;;;;;;;;;1.00;1.00;;;;;7.79;72.20;101901.28;5010895;28;45461;-85
2021/12/12 00:10:24;;;;;;;;;2.00;0.00;;;;;7.82;72.72;101909.19;5030681;28;47575;-86
2021/12/12 00:12:54;;;;;;;;;0.00;0.00;;;;;7.66;73.02;101876.56;5026734;28;45582;-84
2021/12/12 00:15:21;;;;;;;;;0.00;0.00;;;;;7.86;73.44;101917.97;5038518;28;45500;-87
2021/12/12 00:17:47;;;;;;;;;0.00;0.00;;;;;7.79;73.63;101903.88;5029702;28;45734;-86
2021/12/12 00:20:17;;;;;;;;;1.00;1.00;;;;;7.84;73.74;101920.50;5040419;28;47377;-86
2021/12/12 00:22:43;;;;;;;;;0.00;0.00;;;;;7.67;73.92;101896.50;5056874;28;45459;-86
2021/12/12 00:25:09;;;;;;;;;0.50;0.50;;;;;7.66;74.47;101902.50;5035010;28;44837;-86
2021/12/12 00:27:35;;;;;;;;;1.00;1.00;;;;;7.48;73.97;101869.84;5034572;28;44926;-85
2021/12/12 00:30:03;;;;;;;;;0.75;0.75;;;;;7.61;74.49;101904.03;5024396;28;45429;-85
2021/12/12 00:32:34;;;;;;;;;1.00;1.00;;;;;7.52;74.67;101888.13;5047626;28;45429;-86
2021/12/12 00:35:03;;;;;;;;;0.00;0.00;;;;;7.50;74.70;101885.47;5033212;28;45340;-85
2021/12/12 00:37:30;;;;;;;;;0.25;0.25;;;;;7.54;75.09;101889.97;5036210;28;46377;-86
2021/12/12 00:40:02;;;;;;;;;2.75;1.75;;;;;7.59;74.97;101897.91;5037710;28;45334;-86
2021/12/12 00:42:34;;;;;;;;;2.25;2.00;;;;;7.70;75.25;101914.78;5019212;28;45450;-86
2021/12/12 00:45:08;;;;;;;;;2.25;1.00;;;;;7.53;75.34;101888.19;5028558;28;45401;-86
2021/12/12 00:47:33;;;;;;;;;1.00;1.00;;;;;7.71;75.45;101911.34;5054259;28;45413;-86
2021/12/12 00:49:59;;;;;;;;;2.00;1.00;;;;;7.74;75.63;101915.75;5033662;28;45274;-85
2021/12/12 00:52:24;;;;;;;;;2.50;0.00;;;;;7.58;75.62;101898.72;5030981;28;45318;-85
2021/12/12 00:54:51;;;;;;;;;0.00;0.00;;;;;7.40;75.19;101855.72;5030340;28;45335;-85
2021/12/12 00:57:20;;;;;;;;;0.00;0.00;;;;;7.69;75.41;101901.75;5032322;28;45614;-85
2021/12/12 00:59:47;;;;;;;;;1.00;1.00;;;;;7.66;76.04;101897.31;5067620;28;46573;-86
2021/12/12 01:02:25;;;;;;;;;0.75;0.00;;;;;7.60;75.37;101900.56;5040088;28;45299;-84
2021/12/12 01:04:55;;;;;;;;;0.00;0.00;;;;;7.60;75.93;101890.19;5054129;28;45210;-84
2021/12/12 01:07:27;;;;;;;;;0.00;0.00;;;;;7.59;75.72;101892.72;5042378;28;44884;-85
2021/12/12 01:10:05;;;;;;;;;0.00;0.00;;;;;7.54;75.94;101873.53;5045295;28;46630;-85
2021/12/12 01:12:32;;;;;;;;;0.00;0.00;;;;;7.64;75.89;101892.91;5044913;28;44798;-85
2021/12/12 01:15:11;;;;;;;;;0.00;0.00;;;;;7.71;75.68;101903.56;5036543;28;45299;-86
2021/12/12 01:17:42;;;;;;;;;0.00;0.00;;;;;7.70;75.90;101901.81;5017088;28;45154;-85
2021/12/12 01:20:27;;;;;;;;;0.75;0.00;;;;;7.73;76.35;101911.41;5031495;28;45411;-86
2021/12/12 01:22:56;;;;;;;;;0.00;0.00;;;;;7.66;76.32;101894.72;5034685;28;45224;-85
2021/12/12 01:25:30;;;;;;;;;0.00;0.00;;;;;7.48;75.94;101869.00;5029896;28;45391;-86
2021/12/12 01:27:56;;;;;;;;;0.00;0.00;;;;;7.55;77.00;101875.28;5036934;28;45259;-85
2021/12/12 01:30:23;;;;;;;;;0.00;0.00;;;;;7.62;76.23;101897.16;5039841;28;45441;-85
2021/12/12 01:32:49;;;;;;;;;2.00;0.00;;;;;7.64;76.79;101904.16;5040951;28;45475;-85
2021/12/12 01:35:18;;;;;;;;;0.00;0.00;;;;;7.71;76.87;101913.94;5030727;28;45475;-85
2021/12/12 01:38:50;;;;;;;;;0.00;0.00;;;;;7.60;77.03;101903.16;5049551;28;45251;-85
2021/12/12 01:40:35;;;;;;;;;0.25;0.25;;;;;7.54;76.43;101895.16;5035495;28;45441;-85
2021/12/12 01:43:30;;;;;;;;;0.00;0.00;;;;;7.65;76.77;101911.09;5043813;28;45978;-85
2021/12/12 01:46:13;;;;;;;;;0.00;0.00;;;;;7.66;76.78;101915.47;5018089;28;45320;-85
2021/12/12 01:48:58;;;;;;;;;0.00;0.00;;;;;7.65;76.92;101920.56;5031778;28;45462;-85
2021/12/12 01:51:26;;;;;;;;;0.75;0.50;;;;;7.66;77.13;101928.41;5005398;28;47505;-86
2021/12/12 01:53:55;;;;;;;;;1.50;1.00;;;;;7.71;77.58;101924.31;5021211;28;45394;-85
2021/12/12 01:56:31;;;;;;;;;0.00;0.00;;;;;7.34;77.44;101856.38;5033575;28;45370;-86
2021/12/12 01:59:01;;;;;;;;;0.00;0.00;;;;;7.73;77.02;101924.38;5039894;28;45692;-86
2021/12/12 02:01:35;;;;;;;;;0.00;0.00;;;;;7.60;77.58;101907.47;5044891;28;47324;-86
2021/12/12 02:04:06;;;;;;;;;1.00;0.00;;;;;7.61;77.51;101904.03;5038537;28;45324;-86
2021/12/12 02:06:32;;;;;;;;;0.00;0.00;;;;;7.54;77.00;101897.75;5039846;28;45462;-86
2021/12/12 02:08:58;;;;;;;;;2.25;0.00;;;;;7.64;77.08;101911.94;5032824;28;45438;-86
2021/12/12 02:11:31;;;;;;;;;0.00;0.00;;;;;7.77;77.30;101938.31;5060722;28;47587;-86
2021/12/12 02:14:07;;;;;;;;;1.00;0.00;;;;;7.83;77.23;101949.84;5049547;28;44680;-86
2021/12/12 02:16:34;;;;;;;;;0.25;0.00;;;;;7.56;77.38;101908.13;5040079;28;45815;-86
2021/12/12 02:19:00;;;;;;;;;0.00;0.00;;;;;7.77;77.32;101934.03;5024087;28;45504;-86
2021/12/12 02:21:39;;;;;;;;;0.00;0.00;;;;;7.76;77.73;101932.28;5039507;28;48015;-86
2021/12/12 02:35:08;;;;;;;;;0.00;0.00;;;;;7.95;77.46;101945.94;5013672;28;45284;-86
2021/12/12 02:35:23;;;;;;;;;0.00;0.00;;;;;7.39;77.25;101842.69;5041385;28;45493;-86
2021/12/12 02:37:52;;;;;;;;;0.00;0.00;;;;;7.85;77.33;101926.56;5024693;28;45292;-86
2021/12/12 02:40:22;;;;;;;;;0.00;0.00;;;;;7.85;77.18;101927.44;5037858;28;45510;-86
2021/12/12 02:42:48;;;;;;;;;0.00;0.00;;;;;7.95;77.31;101946.84;5037441;28;45571;-86
2021/12/12 02:45:16;;;;;;;;;0.00;0.00;;;;;8.05;77.53;101957.56;5029891;28;45436;-86
2021/12/12 02:47:45;;;;;;;;;0.00;0.00;;;;;8.06;76.88;101951.56;5017038;28;45353;-85
2021/12/12 02:50:19;;;;;;;;;0.00;0.00;;;;;7.94;77.08;101926.03;5035345;28;45460;-86
2021/12/12 02:52:49;;;;;;;;;0.00;0.00;;;;;7.93;77.16;101937.25;5027846;28;45589;-86
2021/12/12 02:55:19;;;;;;;;;0.00;0.00;;;;;7.96;77.73;101947.72;5042655;28;45280;-86
2021/12/12 02:57:45;;;;;;;;;0.00;0.00;;;;;8.10;77.57;101969.91;5034247;28;45419;-86
2021/12/12 03:00:14;;;;;;;;;0.00;0.00;;;;;8.10;77.54;101969.00;5026904;28;45651;-85
2021/12/12 03:02:45;;;;;;;;;0.25;0.25;;;;;8.01;77.81;101953.97;5037778;28;45820;-85
2021/12/12 03:05:13;;;;;;;;;0.00;0.00;;;;;7.86;78.06;101939.59;5046467;28;45798;-86
2021/12/12 03:07:39;;;;;;;;;0.00;0.00;;;;;8.05;77.85;101963.63;5030997;28;46239;-86
2021/12/12 03:10:10;;;;;;;;;0.00;0.00;;;;;7.93;77.65;101942.44;5046465;28;45246;-85
2021/12/12 03:12:37;;;;;;;;;0.25;0.25;;;;;8.05;77.74;101963.63;5032533;28;45458;-86
2021/12/12 03:15:16;;;;;;;;;0.00;0.00;;;;;8.06;77.57;101970.59;5024517;28;45397;-86
2021/12/12 03:17:43;;;;;;;;;0.00;0.00;;;;;8.06;77.87;101968.00;5028923;28;45520;-85
2021/12/12 03:20:24;;;;;;;;;0.00;0.00;;;;;7.96;77.87;101955.50;5043850;28;44918;-86
2021/12/12 03:22:53;;;;;;;;;0.00;0.00;;;;;8.12;78.15;101967.38;5051526;28;45405;-86
2021/12/12 03:25:19;;;;;;;;;0.00;0.00;;;;;7.41;77.69;101839.34;5044107;28;45426;-86
2021/12/12 03:27:44;;;;;;;;;1.00;0.00;;;;;8.14;77.79;101965.69;5042117;28;45342;-86
2021/12/12 03:30:10;;;;;;;;;0.00;0.00;;;;;7.79;77.14;101914.25;5037511;28;45580;-85
2021/12/12 03:32:36;;;;;;;;;0.00;0.00;;;;;8.14;77.77;101962.25;5037158;28;47441;-85
2021/12/12 03:35:03;;;;;;;;;0.00;0.00;;;;;8.13;77.78;101957.84;5044241;28;45319;-85
2021/12/12 03:37:33;;;;;;;;;0.00;0.00;;;;;8.18;77.44;101964.13;5050584;28;45107;-84
2021/12/12 03:40:08;;;;;;;;;0.00;0.00;;;;;8.03;77.56;101938.47;5062819;28;44777;-84
2021/12/12 03:42:34;;;;;;;;;0.00;0.00;;;;;7.92;78.00;101914.72;5045730;28;45138;-84
2021/12/12 03:45:00;;;;;;;;;0.00;0.00;;;;;8.20;77.99;101957.25;5038859;28;45527;-84
2021/12/12 03:47:30;;;;;;;;;0.00;0.00;;;;;8.24;77.79;101959.19;5028950;28;45313;-85
2021/12/12 03:49:59;;;;;;;;;0.00;0.00;;;;;8.18;77.97;101959.81;5034060;28;45271;-85
2021/12/12 03:52:25;;;;;;;;;0.00;0.00;;;;;8.18;77.79;101964.13;5038828;28;45401;-85
2021/12/12 03:54:53;;;;;;;;;1.00;0.00;;;;;8.29;77.62;101973.19;5027486;28;45398;-85
2021/12/12 03:57:20;;;;;;;;;0.00;0.00;;;;;8.11;77.93;101950.03;5042715;28;45286;-85
2021/12/12 03:59:46;;;;;;;;;0.00;0.00;;;;;8.15;77.33;101945.84;5040038;28;44936;-86
2021/12/12 04:02:12;;;;;;;;;0.00;0.00;;;;;8.32;78.26;101975.91;5040800;28;47161;-86
2021/12/12 04:04:41;;;;;;;;;0.00;0.00;;;;;8.34;77.49;101969.06;5038745;28;45407;-85
2021/12/12 04:07:14;;;;;;;;;0.00;0.00;;;;;8.24;78.04;101947.06;5032810;28;45441;-86
2021/12/12 04:09:40;;;;;;;;;0.00;0.00;;;;;8.29;78.08;101955.03;5030303;28;44879;-85
2021/12/12 04:12:09;;;;;;;;;0.00;0.00;;;;;8.43;77.40;101970.25;5031442;28;47483;-85
2021/12/12 04:14:36;;;;;;;;;0.00;0.00;;;;;8.35;77.29;101968.25;5057045;28;44726;-85
2021/12/12 04:17:06;;;;;;;;;0.00;0.00;;;;;8.51;77.47;101980.91;5070935;28;45236;-85
2021/12/12 04:19:31;;;;;;;;;0.00;0.00;;;;;8.33;77.51;101954.31;5046516;28;44876;-85
2021/12/12 04:21:58;;;;;;;;;0.00;0.00;;;;;8.53;77.57;101977.53;5060445;28;46311;-83
2021/12/12 04:24:29;;;;;;;;;0.00;0.00;;;;;8.39;77.33;101963.16;5053107;28;45220;-85
2021/12/12 04:26:55;;;;;;;;;0.00;0.00;;;;;8.27;76.99;101937.66;5061020;28;45344;-87
2021/12/12 04:29:28;;;;;;;;;0.00;0.00;;;;;8.33;77.60;101958.63;5058125;28;44956;-85
2021/12/12 04:32:02;;;;;;;;;0.00;0.00;;;;;8.34;77.21;101950.03;5046718;28;47167;-86
2021/12/12 04:34:32;;;;;;;;;0.00;0.00;;;;;8.52;77.28;101983.56;5037784;28;45232;-86
2021/12/12 04:37:02;;;;;;;;;2.00;1.00;;;;;8.44;76.95;101962.50;5042789;28;44731;-86
2021/12/12 04:39:31;;;;;;;;;0.00;0.00;;;;;8.58;77.53;101993.31;5054155;28;45588;-86
2021/12/12 04:42:04;;;;;;;;;0.00;0.00;;;;;8.47;77.29;101979.91;5046885;28;47288;-86
2021/12/12 04:44:34;;;;;;;;;1.00;1.00;;;;;8.47;77.50;101974.72;5044151;28;45358;-86
2021/12/12 04:50:44;;;;;;;;;0.75;0.75;;;;;8.59;77.58;101993.38;5009270;28;45362;-87
2021/12/12 04:53:22;;;;;;;;;1.00;1.00;;;;;8.38;77.60;101970.06;4993824;28;47477;-86
2021/12/12 04:55:55;;;;;;;;;3.00;0.00;;;;;8.31;77.68;101948.19;5023245;28;45877;-85
2021/12/12 04:58:31;;;;;;;;;1.00;1.00;;;;;8.57;77.46;102001.91;5056395;28;44728;-86
2021/12/12 05:01:04;;;;;;;;;0.00;0.00;;;;;8.33;77.92;101967.28;5059380;28;44916;-86
2021/12/12 05:03:33;;;;;;;;;0.75;0.00;;;;;8.58;78.15;102004.56;5059847;28;45384;-85
2021/12/12 05:06:06;;;;;;;;;1.00;1.00;;;;;8.41;77.52;101977.06;5077087;28;44795;-86
2021/12/12 05:08:38;;;;;;;;;1.00;0.00;;;;;8.63;78.16;102014.25;5048530;28;44738;-85
2021/12/12 05:11:26;;;;;;;;;0.00;0.00;;;;;8.62;77.90;102015.97;5056322;28;44891;-86
2021/12/12 05:13:56;;;;;;;;;0.00;0.00;;;;;8.64;77.75;102019.50;5054003;28;47080;-85
2021/12/12 05:16:31;;;;;;;;;0.75;0.75;;;;;8.40;78.15;101976.22;5042368;28;45356;-85
2021/12/12 05:19:06;;;;;;;;;1.00;0.75;;;;;8.62;78.24;102015.97;5033480;28;44757;-85
2021/12/12 05:21:38;;;;;;;;;0.00;0.00;;;;;8.65;77.71;102015.19;5037275;28;45367;-85
2021/12/12 05:24:07;;;;;;;;;2.00;0.25;;;;;8.55;78.31;101995.81;5044593;28;47360;-86
2021/12/12 05:26:38;;;;;;;;;2.00;0.00;;;;;8.56;78.08;102001.06;5041512;28;45840;-85
2021/12/12 05:29:15;;;;;;;;;1.50;0.00;;;;;8.61;77.54;102022.84;5049033;28;45481;-86
2021/12/12 05:31:47;;;;;;;;;0.50;0.50;;;;;8.68;78.31;102041.25;5035263;28;45305;-85
2021/12/12 05:34:16;;;;;;;;;0.00;0.00;;;;;8.66;78.39;102025.63;5049680;28;46296;-86
2021/12/12 05:36:44;;;;;;;;;0.00;0.00;;;;;8.55;78.47;102006.19;5039787;28;45419;-86
2021/12/12 05:39:09;;;;;;;;;1.00;1.00;;;;;8.67;78.52;102032.56;5048234;28;45359;-86
2021/12/12 05:41:35;;;;;;;;;0.00;0.00;;;;;8.46;77.97;101983.34;5029832;28;45177;-86
2021/12/12 05:44:02;;;;;;;;;0.00;0.00;;;;;8.51;78.18;101986.97;5034612;28;45268;-85
2021/12/12 05:46:27;;;;;;;;;2.00;0.00;;;;;8.73;78.06;102019.84;5036401;28;45330;-86
2021/12/12 05:48:53;;;;;;;;;1.00;1.00;;;;;8.76;78.74;102028.56;5045807;28;45507;-86
2021/12/12 05:51:20;;;;;;;;;0.00;0.00;;;;;8.59;78.09;102001.16;5043339;28;45410;-86
2021/12/12 05:53:50;;;;;;;;;0.50;0.00;;;;;8.82;78.08;102032.28;5022774;28;47307;-86
2021/12/12 05:56:17;;;;;;;;;0.00;0.00;;;;;8.67;78.34;102014.41;5053542;28;45221;-86
2021/12/12 05:58:43;;;;;;;;;0.00;0.00;;;;;8.55;78.50;101986.28;5033235;28;45266;-86
2021/12/12 06:01:10;;;;;;;;;0.50;0.50;;;;;8.50;77.93;101974.81;5023051;28;45437;-86
2021/12/12 06:03:39;;;;;;;;;1.00;0.00;;;;;8.83;78.03;102034.06;5034522;28;45370;-86
2021/12/12 06:06:09;;;;;;;;;0.00;0.00;;;;;8.84;78.38;102037.53;5042976;28;44626;-86
2021/12/12 06:08:36;;;;;;;;;2.00;1.25;;;;;8.58;78.23;102004.56;5055016;28;44746;-86
2021/12/12 06:11:02;;;;;;;;;2.25;0.75;;;;;8.86;77.98;102062.72;5062241;28;44878;-85
2021/12/12 06:13:29;;;;;;;;;2.00;1.00;;;;;8.86;78.18;102057.53;5041330;28;47255;-86
2021/12/12 06:15:56;;;;;;;;;0.50;0.50;;;;;8.63;77.99;102024.66;5033179;28;44606;-86
2021/12/12 06:18:26;;;;;;;;;0.00;0.00;;;;;8.59;78.07;102026.22;5043987;28;45479;-87
2021/12/12 06:20:52;;;;;;;;;0.00;0.00;;;;;8.61;78.67;102040.16;5056523;28;45320;-86
2021/12/12 06:23:18;;;;;;;;;1.00;0.00;;;;;8.45;78.66;102013.56;5037236;28;46334;-87
2021/12/12 06:25:45;;;;;;;;;1.25;1.25;;;;;8.90;78.25;102075.81;5050811;28;44632;-86
2021/12/12 06:28:30;;;;;;;;;0.00;0.00;;;;;8.74;78.46;102050.19;5037301;28;45248;-87
2021/12/12 06:30:56;;;;;;;;;1.00;1.00;;;;;8.96;78.37;102070.84;5064853;28;45542;-86
2021/12/12 06:33:22;;;;;;;;;0.00;0.00;;;;;8.98;78.04;102077.00;5047939;28;47145;-85
2021/12/12 06:35:48;;;;;;;;;0.00;0.00;;;;;8.84;78.18;102064.38;5034775;28;45356;-86
2021/12/12 06:38:15;;;;;;;;;1.75;1.00;;;;;8.64;78.11;102045.47;5035550;28;44731;-86
2021/12/12 06:40:43;;;;;;;;;0.25;0.00;;;;;8.89;78.40;102087.94;5049269;28;45418;-85
2021/12/12 06:43:12;;;;;;;;;1.00;1.00;;;;;8.90;78.62;102094.00;5057898;28;47339;-86
2021/12/12 06:45:38;;;;;;;;;0.00;0.00;;;;;8.85;78.41;102086.91;5035549;28;45593;-86
2021/12/12 06:48:06;;;;;;;;;0.50;0.50;;;;;8.84;78.86;102087.75;5035952;28;45489;-86
2021/12/12 06:50:35;;;;;;;;;0.00;0.00;;;;;8.58;78.41;102053.03;5037155;28;45472;-86
2021/12/12 06:53:02;;;;;;;;;0.00;0.00;;;;;8.62;78.46;102067.88;5053090;28;46875;-86
2021/12/12 06:55:30;;;;;;;;;0.00;0.00;;;;;8.73;78.63;102091.66;5044595;28;45320;-86
2021/12/12 06:57:56;;;;;;;;;1.00;0.00;;;;;8.54;78.50;102064.13;5024917;28;45344;-86
2021/12/12 07:00:24;;;;;;;;;1.00;1.00;;;;;8.70;78.96;102107.13;5023935;28;45398;-86
2021/12/12 07:02:50;;;;;;;;;1.00;1.00;;;;;8.49;78.88;102079.47;5011553;28;45384;-86
2021/12/12 07:05:20;;;;;;;;;0.00;0.00;;;;;8.68;78.87;102108.75;5008872;28;45260;-86
2021/12/12 07:07:48;;;;;;;;;2.00;0.00;;;;;8.65;78.97;102112.13;4982061;28;1248923;-87
2021/12/12 07:10:17;;;;;;;;;0.50;0.00;;;;;8.57;79.28;102097.94;5043146;28;45704;-87
2021/12/12 07:12:43;;;;;;;;;2.50;0.00;;;;;8.68;78.83;102116.56;5034490;28;47342;-87
2021/12/12 07:15:15;;;;;;;;;1.00;0.25;;;;;8.61;79.63;102107.66;5025938;28;45703;-87
2021/12/12 07:17:42;;;;;;;;;0.00;0.00;;;;;8.68;79.08;102111.38;5052564;28;45401;-87
2021/12/12 07:20:10;;;;;;;;;0.75;0.00;;;;;8.33;79.10;102049.44;5054965;28;45325;-87
2021/12/12 07:22:36;;;;;;;;;0.00;0.00;;;;;8.55;78.88;102077.13;5057436;28;46503;-87
2021/12/12 07:25:05;;;;;;;;;1.00;0.00;;;;;8.80;79.15;102116.16;5033495;28;45379;-86
2021/12/12 07:27:31;;;;;;;;;0.75;0.00;;;;;8.59;79.23;102084.22;5036468;28;45254;-87
2021/12/12 07:29:58;;;;;;;;;0.00;0.00;;;;;8.65;79.15;102093.06;5043145;28;45534;-85
2021/12/12 07:32:25;;;;;;;;;1.00;0.00;;;;;8.87;79.21;102126.84;5038935;28;47128;-87
2021/12/12 07:34:51;;;;;;;;;1.75;0.00;;;;;8.85;79.33;102128.47;5053381;28;44955;-85
2021/12/12 07:37:18;;;;;;;;;0.00;0.00;;;;;8.87;79.30;102132.03;5047093;28;45299;-86
2021/12/12 07:39:44;;;;;;;;;0.00;0.00;;;;;8.59;78.85;102088.53;5032502;28;45343;-85
2021/12/12 07:42:11;;;;;;;;;2.00;2.00;;;;;8.21;79.25;102024.78;5041954;28;46378;-85
2021/12/12 07:44:40;;;;;;;;;1.00;0.00;;;;;8.79;79.50;102110.06;5059184;28;44721;-85
2021/12/12 07:47:08;;;;;;;;;0.00;0.00;;;;;8.92;79.13;102134.81;5054372;28;45451;-85
2021/12/12 07:49:38;;;;;;;;;0.00;0.00;;;;;8.89;78.89;102133.78;5029555;28;45291;-84
2021/12/12 07:52:12;;;;;;;;;0.00;0.00;;;;;8.84;79.21;102134.50;5029410;28;45470;-86
2021/12/12 07:54:38;;;;;;;;;0.00;0.00;;;;;8.66;79.14;102100.03;5033303;28;45436;-84
2021/12/12 07:57:05;;;;;;;;;2.50;0.25;;;;;8.52;79.42;102087.38;5031581;28;45453;-84
2021/12/12 07:59:33;;;;;;;;;1.25;0.00;;;;;8.81;79.64;102134.38;5028713;28;45501;-86
2021/12/12 08:01:59;;;;;;;;;0.00;0.00;;;;;8.53;79.17;102091.75;5057101;28;47288;-86
2021/12/12 08:04:27;;;;;;;;;0.00;0.00;;;;;8.69;79.91;102111.41;5039846;28;45344;-85
2021/12/12 08:06:54;;;;;;;;;1.00;0.00;;;;;8.72;79.16;102108.94;5031688;28;44841;-88
2021/12/12 08:09:22;;;;;;;;;0.50;0.50;;;;;8.92;79.79;102144.28;5047880;28;46633;-86
2021/12/12 08:11:49;;;;;;;;;0.25;0.25;;;;;8.79;79.71;102124.75;5040069;28;47915;-87
2021/12/12 08:14:19;;;;;;;;;0.25;0.00;;;;;8.22;79.42;102031.75;5022353;28;45356;-89
2021/12/12 08:16:47;;;;;;;;;0.00;0.00;;;;;8.64;79.38;102088.72;5018121;28;45519;-86
2021/12/12 08:19:13;;;;;;;;;0.00;0.00;;;;;8.51;79.39;102085.59;5041825;28;45573;-86
2021/12/12 08:21:39;;;;;;;;;0.00;0.00;;;;;8.59;79.49;102092.03;5020882;28;45390;-82
2021/12/12 08:24:09;;;;;;;;;0.00;0.00;;;;;8.82;79.79;102130.09;5011580;28;45441;-85
2021/12/12 08:26:36;;;;;;;;;0.00;0.00;;;;;9.05;79.60;102158.63;5016554;28;45419;-83
2021/12/12 08:29:08;;;;;;;;;0.00;0.00;;;;;8.84;79.06;102124.13;5021467;28;45404;-85
2021/12/12 08:31:37;;;;;;;;;1.50;1.50;;;;;9.04;79.26;102157.75;5040261;28;48528;-85
2021/12/12 08:34:09;;;;;;;;;0.00;0.00;;;;;9.11;79.48;102170.16;5022887;28;45430;-85
2021/12/12 08:36:37;;;;;;;;;0.00;0.00;;;;;9.18;79.18;102171.25;5019668;28;45452;-85
2021/12/12 08:39:05;;;;;;;;;0.00;0.00;;;;;9.17;79.06;102172.09;5054935;28;45469;-85
2021/12/12 08:41:32;;;;;;;;;0.25;0.25;;;;;9.04;79.41;102157.75;5027768;28;46116;-86
2021/12/12 08:43:58;;;;;;;;;0.00;0.00;;;;;9.13;79.46;102168.47;5023196;28;46130;-87
2021/12/12 08:46:24;;;;;;;;;0.00;0.00;;;;;9.11;79.27;102166.66;5022431;28;45489;-83
2021/12/12 08:48:51;;;;;;;;;0.00;0.00;;;;;9.08;79.48;102154.44;5037847;28;45563;-89
2021/12/12 08:51:40;;;;;;;;;1.00;1.00;;;;;9.21;79.23;102173.06;5028794;28;46465;-86
2021/12/12 08:54:14;;;;;;;;;0.00;0.00;;;;;9.06;79.59;102148.28;5033412;28;45418;-83
2021/12/12 08:56:48;;;;;;;;;0.00;0.00;;;;;9.32;79.37;102176.09;5027717;28;45453;-87
2021/12/12 08:59:20;;;;;;;;;0.25;0.00;;;;;8.96;79.48;102118.50;5016466;28;45956;-84
2021/12/12 09:01:48;;;;;;;;;0.00;0.00;;;;;9.09;79.14;102132.81;5016793;28;48054;-82
2021/12/12 09:04:15;;;;;;;;;0.00;0.00;;;;;9.45;79.73;102185.22;5013782;28;45483;-85
2021/12/12 09:06:53;;;;;;;;;1.00;1.00;;;;;9.32;79.26;102165.69;5019469;28;45578;-83
2021/12/12 09:09:22;;;;;;;;;1.00;0.00;;;;;9.46;79.42;102184.38;5021142;28;45428;-82
2021/12/12 09:12:12;;;;;;;;;0.00;0.00;;;;;9.43;79.41;102187.75;5033324;28;45498;-81
2021/12/12 09:14:46;;;;;;;;;3.00;0.00;;;;;9.56;79.25;102201.22;5037286;28;45506;-82
2021/12/12 09:17:48;;;;;;;;;0.00;0.00;;;;;9.59;79.03;102196.13;5035942;28;45426;-82
2021/12/12 09:20:16;;;;;;;;;1.75;1.75;;;;;9.61;78.47;102197.94;5034646;28;45445;-80
2021/12/12 09:22:54;;;;;;;;;1.00;0.00;;;;;9.49;78.78;102169.78;5028352;28;46097;-85
2021/12/12 09:25:51;;;;;;;;;2.00;0.25;;;;;9.63;78.74;102191.09;5023987;28;45454;-83
2021/12/12 09:28:16;;;;;;;;;0.00;0.00;;;;;9.67;78.83;102205.06;5022300;28;45463;-81
2021/12/12 09:30:42;;;;;;;;;0.00;0.00;;;;;9.71;78.79;102212.16;5019123;28;45481;-85
2021/12/12 09:33:09;;;;;;;;;1.00;0.00;;;;;9.70;78.69;102205.19;5022458;28;45479;-83
2021/12/12 09:35:42;;;;;;;;;0.00;0.00;;;;;9.53;78.84;102180.28;5014417;28;45365;-86
2021/12/12 09:38:25;;;;;;;;;0.75;0.00;;;;;9.72;79.10;102213.03;5029313;28;45516;-78
2021/12/12 09:41:14;;;;;;;;;0.00;0.00;;;;;9.74;79.05;102209.66;5028025;28;45492;-81
2021/12/12 09:43:51;;;;;;;;;0.00;0.00;;;;;9.76;79.31;102208.00;5030864;28;45385;-81
2021/12/12 09:46:28;;;;;;;;;0.00;0.00;;;;;9.74;79.24;102201.88;5029695;28;45406;-83
2021/12/12 09:52:39;;;;;;;;;0.50;0.50;;;;;9.87;79.37;102213.56;5022129;28;45373;-83
2021/12/12 09:55:12;;;;;;;;;0.00;0.00;;;;;9.61;79.29;102164.16;5037433;28;47339;-81
2021/12/12 09:57:37;;;;;;;;;0.00;0.00;;;;;10.00;79.01;102212.31;5016757;28;45181;-88
2021/12/12 10:00:13;;;;;;;;;1.00;0.00;;;;;10.09;79.18;102214.34;5053042;28;44697;-85
2021/12/12 10:02:41;;;;;;;;;0.00;0.00;;;;;10.17;79.04;102214.59;5035715;28;45522;-84
2021/12/12 10:05:32;;;;;;;;;0.75;0.00;;;;;10.25;78.82;102209.66;5025479;28;45481;-84
2021/12/12 10:08:15;;;;;;;;;0.00;0.00;;;;;10.13;78.69;102181.50;5004334;28;45389;-80
2021/12/12 10:10:52;;;;;;;;;0.00;0.00;;;;;10.28;78.34;102204.56;5026958;28;45357;-81
2021/12/12 10:13:40;;;;;;;;;0.00;0.00;;;;;10.34;77.98;102217.78;5039408;28;45381;-81
2021/12/12 10:16:17;;;;;;;;;0.00;0.00;;;;;10.37;78.03;102214.38;5020009;28;45473;-82
2021/12/12 10:19:00;;;;;;;;;0.00;0.00;;;;;10.34;78.06;102214.28;5038853;28;45521;-79
2021/12/12 10:21:32;;;;;;;;;1.00;1.00;;;;;10.33;78.11;102210.81;5023119;28;45513;-79
2021/12/12 10:24:24;;;;;;;;;0.00;0.00;;;;;10.38;78.30;102216.16;5033885;28;45386;-81
2021/12/12 10:26:59;;;;;;;;;0.00;0.00;;;;;10.20;77.86;102177.41;5032022;28;45485;-82
2021/12/12 10:29:31;;;;;;;;;0.25;0.25;;;;;10.37;78.10;102204.88;5021696;28;45592;-82
2021/12/12 10:32:25;;;;;;;;;0.00;0.00;;;;;10.55;78.20;102215.84;5025694;28;45435;-83
2021/12/12 10:35:04;;;;;;;;;0.50;0.00;;;;;10.43;77.80;102178.16;5035174;28;45448;-84
2021/12/12 10:37:40;;;;;;;;;0.00;0.00;;;;;10.50;77.78;102171.44;5018679;28;46383;-82
2021/12/12 10:40:12;;;;;;;;;0.00;0.00;;;;;10.64;77.24;102170.19;5024253;28;45325;-82
2021/12/12 10:42:46;;;;;;;;;0.00;0.00;;;;;11.03;77.32;102220.84;5033977;28;45303;-83
2021/12/12 10:45:27;;;;;;;;;0.00;0.00;;;;;10.96;76.96;102200.66;5033346;28;45524;-82
2021/12/12 10:48:11;;;;;;;;;0.00;0.00;;;;;11.12;77.04;102214.16;5023036;28;45542;-83
2021/12/12 10:51:00;;;;;;;;;0.00;0.00;;;;;11.16;76.86;102218.63;5027207;28;45417;-85
2021/12/12 10:53:41;;;;;;;;;0.00;0.00;;;;;11.18;76.68;102205.63;5023985;28;45327;-82
2021/12/12 10:56:34;;;;;;;;;1.50;0.50;;;;;11.20;76.24;102211.75;5036608;28;45526;-84
2021/12/12 10:59:18;;;;;;;;;0.00;0.00;;;;;11.14;76.38;102196.81;5021594;28;45466;-80
2021/12/12 11:01:46;;;;;;;;;0.00;0.00;;;;;11.03;76.11;102180.88;5036226;28;45414;-82
2021/12/12 11:04:16;;;;;;;;;0.00;0.00;;;;;11.22;76.37;102212.69;5029912;28;45386;-82
2021/12/12 11:06:44;;;;;;;;;0.00;0.00;;;;;11.25;76.56;102212.78;5028554;28;45429;-83
2021/12/12 11:09:29;;;;;;;;;0.00;0.00;;;;;11.28;76.27;102215.50;5037888;28;45375;-82
2021/12/12 11:12:26;;;;;;;;;1.00;0.00;;;;;11.32;76.03;102216.44;5008791;28;45363;-83
2021/12/12 11:15:02;;;;;;;;;0.50;0.50;;;;;11.35;76.23;102222.66;5035283;28;45322;-81
2021/12/12 11:17:33;;;;;;;;;0.00;0.00;;;;;11.21;75.88;102201.38;5038358;28;45352;-83
2021/12/12 11:20:01;;;;;;;;;1.00;0.00;;;;;11.33;75.24;102215.63;5017887;28;45459;-83
2021/12/12 11:22:40;;;;;;;;;1.00;0.00;;;;;11.11;75.56;102182.00;5017862;28;46188;-82
2021/12/12 11:25:08;;;;;;;;;0.00;0.00;;;;;11.30;75.84;102215.53;5030614;28;45476;-85
2021/12/12 11:27:42;;;;;;;;;0.25;0.25;;;;;11.24;76.19;102219.72;5020704;28;45550;-84
2021/12/12 11:30:18;;;;;;;;;0.00;0.00;;;;;11.28;76.34;102223.31;5019889;28;45566;-84
2021/12/12 11:32:45;;;;;;;;;1.00;0.00;;;;;11.10;76.03;102198.47;5023610;28;45433;-84
2021/12/12 11:35:15;;;;;;;;;0.00;0.00;;;;;11.20;76.16;102224.78;5039871;28;45353;-84
2021/12/12 11:38:03;;;;;;;;;0.00;0.00;;;;;11.14;76.08;102228.09;5035115;28;45447;-87
2021/12/12 11:40:39;;;;;;;;;0.50;0.00;;;;;10.93;76.38;102192.72;5018158;28;46259;-82
2021/12/12 11:43:25;;;;;;;;;0.00;0.00;;;;;11.17;76.41;102212.56;5028381;28;45307;-84
2021/12/12 11:45:57;;;;;;;;;1.00;0.00;;;;;11.12;76.15;102220.22;5016053;28;45312;-83
2021/12/12 11:48:23;;;;;;;;;0.00;0.00;;;;;11.12;76.71;102219.38;5020045;28;45457;-84
2021/12/12 11:51:10;;;;;;;;;0.00;0.00;;;;;10.73;76.93;102156.56;5020822;28;46234;-82
2021/12/12 11:53:45;;;;;;;;;0.50;0.25;;;;;11.16;76.80;102210.81;5018444;28;45533;-83
2021/12/12 11:56:13;;;;;;;;;2.00;0.25;;;;;11.18;77.38;102213.47;5023819;28;45864;-85
2021/12/12 11:58:42;;;;;;;;;0.00;0.00;;;;;11.18;76.79;102222.13;5029512;28;45370;-86
2021/12/12 12:01:23;;;;;;;;;0.50;0.00;;;;;11.20;77.01;102219.56;5016051;28;45443;-85
2021/12/12 12:04:09;;;;;;;;;1.25;0.00;;;;;10.75;76.93;102138.38;5012819;28;45440;-85
2021/12/12 12:06:55;;;;;;;;;0.00;0.00;;;;;11.03;76.74;102171.31;5029157;28;46058;-84